Bartosz Buksa

Scout - Jagiellonia
17 Jul 2027
Samstag
Verarbeitung

Persönlichkeit

Anpassungsfähigkeit (2) Ehrgeiz (11) Kontroverse (9) Loyalität (3) Druck (18) Professionalität (8) Fairness (13) Temperament (3)

Profil

Trainerstil Demokratisch
Lizenz Nationale B
Entschlossenheit 8
Menschenführung 7
Motivation 6
Disziplin 8
Arbeitszufriedenheit
100%
Ermüdung
0%
Rolle Scout
Gehalt 18.5K p/W
Vertrag 14.03.2030

Leistung

Verhalten Gut
Trainingseffektivität
40%
Spielerentwicklung
40%
Verletzungsprävention
45%
Taktische Umsetzung
25%

Letzte Ereignisse

Nahm an einer Scouting-Besprechung teil 14T her
Nahm an einer Scouting-Besprechung teil 21T her
Nahm an einer Scouting-Besprechung teil 28T her
Nahm an einer Scouting-Besprechung teil 35T her
Spieler begutachtet 42T her
Nahm an einer Scouting-Besprechung teil 42T her
Spieler begutachtet 49T her
Spieler begutachtet 49T her

Aktuell beobachtet

127
Spieler Verein Status Fähigkeit Vertrauen Beobachtet Zuletzt beobachtet Letzte Stimme
Gonçalo Oliveira Benfica Aktiv 106 / 126 40% 6 31.05.2027 -
Leonardo Mendicino Bari Aktiv 112 / 117 40% 2 31.05.2027 -
Matteo Zazza Altamura Aktiv 98 / 100 40% 1 31.05.2027 -
Eduardo Felicíssimo Sporting CP Verloren 113 / 116 40% 2 27.05.2027 -
Tiago Freitas Benfica Aktiv 115 / 121 40% 3 27.05.2027 -
Ezra Mayers West Ham United Aktiv 122 / 122 40% 1 27.05.2027 -
Leandro Martins Benfica Aktiv 89 / 103 40% 4 26.05.2027 -
Tommaso Cecotti Carpi Aktiv 89 / 95 40% 3 26.05.2027 -
Joe Gelhardt Hull City Aktiv 131 / 124 40% 2 24.05.2027 -
Harvey Blair Portsmouth Aktiv 117 / 118 40% 1 24.05.2027 -
Tommy Conway Middlesbrough Aktiv 125 / 136 40% 3 23.05.2027 -
Jay Stansfield Birmingham Aktiv 129 / 137 40% 2 23.05.2027 -
Amin Sarr Hellas Verona Aktiv 125 / 132 40% 1 23.05.2027 -
Taras Mykhavko Dynamo Kyiv Aktiv 127 / 131 40% 4 22.05.2027 -
Juan David Arizala Udinese Aktiv 128 / 122 40% 3 22.05.2027 -
Sam Curtis Swindon Town Aktiv 101 / 116 40% 6 21.05.2027 -
Dale Taylor Blackpool Aktiv 114 / 114 40% 3 20.05.2027 -
Jakub Jakimiuk Angusht Aktiv 74 / 71 40% 1 20.05.2027 -
Kelly Saravanan Salford City Aktiv 111 / 103 40% 2 18.05.2027 -
Giuseppe Di Serio Spezia Aktiv 117 / 120 40% 1 18.05.2027 -
Iwan Morgan Grimsby Town Aktiv 106 / 121 40% 1 18.05.2027 -
Enzo Cardozo Virtus Entella Aktiv 112 / 109 40% 3 17.05.2027 -
Etiosa Ighodaro Kaizer Chiefs Aktiv 108 / 106 40% 1 17.05.2027 -
Joel McGregor Swindon Town Aktiv 89 / 88 40% 1 13.05.2027 -
Riyad Idrissi Torino Aktiv 125 / 124 40% 1 13.05.2027 -
Pablo Rodríguez Lech Verloren 131 / 128 40% 3 12.05.2027 -
Jeffrey Adjei Wa All Stars Aktiv 81 / 82 40% 1 12.05.2027 -
Tyreece Campbell Charlton Athletic Aktiv 115 / 127 40% 2 10.05.2027 -
Jovon Makama Norwich City Aktiv 124 / 132 40% 1 10.05.2027 -
Mohamed-Ali Cho Hull City Aktiv 139 / 143 40% 1 10.05.2027 -
Ilyas Ansah Hull City Aktiv 133 / 129 40% 3 09.05.2027 -
Dom Ballard Leyton Orient Aktiv 116 / 129 40% 2 09.05.2027 -
Konan N'Dri Lecce Aktiv 126 / 133 40% 2 08.05.2027 -
Josh Coburn Millwall Aktiv 113 / 121 40% 1 08.05.2027 -
Yousef Salech Cardiff City Aktiv 125 / 131 40% 1 08.05.2027 -
Norbert Barczak Korona Aktiv 82 / 85 40% 6 06.05.2027 -
Riley Owen Wycombe Wanderers Aktiv 99 / 112 40% 3 05.05.2027 -
Jonathan Bland Barnsley Aktiv 105 / 110 40% 3 05.05.2027 -
Christos Mouzakitis Hull City Aktiv 134 / 137 40% 11 04.05.2027 -
Simone Kosijer Triestina Aktiv 100 / 95 40% 1 04.05.2027 -
Ronan Kpakio Brentford Aktiv 114 / 125 40% 3 30.04.2027 -
Davide Bartesaghi AC Milan Aktiv 127 / 141 40% 1 28.04.2027 -
Lucas Jetten Cambuur Aktiv 113 / 123 40% 5 22.04.2027 -
Bakary Haïdara Hearts of Oak Aktiv 114 / 117 40% 4 21.04.2027 -
Victor Ehibe Gazelle Garoua Aktiv 98 / 108 40% 2 21.04.2027 -
Daniel Vernattus Metalist Aktiv 92 / 98 40% 3 19.04.2027 -
Maeson King Blackpool Aktiv 109 / 116 40% 2 09.04.2027 -
Mohammed Wakaso Hasaacas Aktiv 96 / 92 40% 2 09.04.2027 -
Jofre Torrents Ajax Aktiv 121 / 136 40% 4 08.04.2027 -
Caleb Yirenkyi Coventry City Aktiv 132 / 147 40% 3 08.04.2027 -
Lucas Mbamba Westerlo Aktiv 84 / 86 40% 1 08.04.2027 -
Miguel Figueiredo Benfica Aktiv 104 / 117 40% 2 06.04.2027 -
Jonathan De Irastorza Levante Aktiv 123 / 129 40% 2 06.04.2027 -
Sascha Britschgi Catanzaro Aktiv 114 / 127 40% 1 03.04.2027 -
Riquelme Thompson-Jones Shrewsbury Town Aktiv 100 / 121 40% 6 29.03.2027 -
T-Jay Parfitt Cardiff City Aktiv 84 / 92 40% 2 27.03.2027 -
Abraham Paintsil Hasaacas Aktiv 97 / 99 40% 3 26.03.2027 -
Edwin Asamoah Berekum Chelsea Aktiv 87 / 104 40% 1 26.03.2027 -
Martim Cunha Porto Aktiv 97 / 114 40% 5 24.03.2027 -
Edmund Inusah WAFA Aktiv 76 / 84 40% 1 21.03.2027 -
Dylan Lawlor Cardiff City Aktiv 115 / 125 40% 2 18.03.2027 -
Edmund Nuhu BA All Stars Aktiv 86 / 101 40% 3 17.03.2027 -
Matvey Kislyak Lokomotiv Moscow Aktiv 137 / 130 40% 2 12.03.2027 -
Thiago Silvero Sevilla Aktiv 129 / 121 40% 2 10.03.2027 -
Eivind Helland Bologna Aktiv 131 / 132 40% 2 05.03.2027 -
James Dornelly Peterborough United Aktiv 99 / 99 40% 2 20.02.2027 -
Zoltan Bese Haladas Aktiv 106 / 123 40% 2 08.02.2027 -
Gladson Sulemana Liberty Professionals Aktiv 82 / 111 40% 2 08.02.2027 -
Matteo Pérez Vinlöf Dinamo Zagreb Aktiv 125 / 119 40% 2 05.02.2027 -
Aaron Connolly Ruch Aktiv 117 / 130 40% 4 24.01.2027 -
Pablo Solari Spartak Moscow Aktiv 134 / 127 40% 5 24.01.2027 -
Allahyar Sayyadmanesh Lech Aktiv 130 / 137 40% 1 24.01.2027 -
Luther Ngcobo Ajax Cape Town Aktiv 111 / 114 40% 1 18.01.2027 -
Rumarn Burrell Queens Park Rangers Aktiv 124 / 122 40% 1 31.12.2026 -
Roberto Massimo Legia Aktiv 113 / 126 40% 4 30.12.2026 -
Fraser Murray Wigan Athletic Aktiv 118 / 110 40% 2 30.12.2026 -
Ethan Galbraith Swansea City Aktiv 130 / 128 40% 2 28.12.2026 -
Cian Ashford Cardiff City Aktiv 120 / 130 40% 1 28.12.2026 -
Mihael Mlinarić Zaglebie Aktiv 122 / 105 40% 1 28.12.2026 -
Tom Fellows Southampton Aktiv 128 / 129 40% 2 26.12.2026 -
Relebohile Mofokeng Orlando Pirates Aktiv 121 / 134 40% 2 25.12.2026 -
Tshepang Moremi Orlando Pirates Aktiv 112 / 120 40% 1 24.12.2026 -
Mateusz Bogusz Houston Dynamo Aktiv 136 / 122 40% 7 19.12.2026 -
Peter Federico Gornik Zabrze Aktiv 118 / 133 40% 5 19.12.2026 -
Jeon Jin-Woo Sheffield Wednesday Aktiv 125 / 127 40% 2 17.12.2026 -
Reda Khadra Qarabag Aktiv 128 / 141 40% 1 17.12.2026 -
Ali Ahmed Norwich City Aktiv 121 / 119 40% 1 15.12.2026 -
Florentino Luís Ipswich Town Aktiv 134 / 149 40% 1 14.12.2026 -
Aljoša Matko Ujpest Aktiv 114 / 116 40% 1 14.12.2026 -
Andre Brooks Sheffield United Aktiv 133 / 132 40% 1 12.12.2026 -
Jack McGlynn Stoke City Aktiv 125 / 141 40% 1 12.12.2026 -
Marquinhos Spartak Moscow Aktiv 137 / 136 40% 4 11.12.2026 -
Louie Barry Sheffield Wednesday Aktiv 123 / 129 40% 1 11.12.2026 -
Nicola Zalewski Atalanta Aktiv 142 / 134 40% 1 10.12.2026 -
Petar Stanić Ludogorets Aktiv 135 / 135 40% 4 08.12.2026 -
Ammar Ramadan DAC Dunajska Streda Aktiv 122 / 127 40% 3 08.12.2026 -
Patrik Hellebrand Korona Aktiv 111 / 120 40% 2 07.12.2026 -
Brooke Norton-Cuffy Hull City Aktiv 130 / 128 40% 1 07.12.2026 -
Tyler Goodrham Oxford United Aktiv 120 / 123 40% 1 06.12.2026 -
Ajdin Hasić Cracovia Aktiv 120 / 117 40% 1 05.12.2026 -
Tobías Andrada Betis Aktiv 111 / 129 40% 1 04.12.2026 -
Luis Palma Lech Aktiv 124 / 125 40% 3 02.12.2026 -
Reuell Walters Luton Town Aktiv 108 / 115 40% 1 30.11.2026 -
Romano Schmid Frosinone Aktiv 139 / 145 40% 1 28.11.2026 -
Patrik Wålemark Lech Aktiv 132 / 134 40% 4 22.11.2026 -
Christian Krasnodar Aktiv 133 / 133 40% 2 22.11.2026 -
Iván Angulo Orlando City Aktiv 125 / 135 40% 3 21.11.2026 -
Daniel Kyerewaa Reading Aktiv 112 / 104 40% 1 21.11.2026 -
David Da Costa Portland Timbers Aktiv 129 / 136 40% 1 07.11.2026 -
Mayckel Lahdo Malmo FF Aktiv 121 / 112 40% 1 06.11.2026 -
Rúben Vinagre Legia Aktiv 115 / 118 40% 1 06.11.2026 -
Samuele Vignato HNK Rijeka Aktiv 123 / 124 40% 1 05.11.2026 -
João Simões Sporting CP Aktiv 133 / 143 40% 2 03.11.2026 -
Mbekezeli Mbokazi Chicago Fire Aktiv 133 / 128 40% 1 03.11.2026 -
Emil Ceïde Rosenborg Aktiv 123 / 122 40% 1 30.10.2026 -
Elias Achouri San Diego Football Club Aktiv 124 / 139 40% 2 27.10.2026 -
Kelvin Yeboah Minnesota United FC Aktiv 121 / 109 40% 1 27.10.2026 -
Martín Ojeda Orlando City Aktiv 137 / 143 40% 2 25.10.2026 -
Wiktor Długosz Korona Aktiv 107 / 107 40% 1 21.10.2026 -
Bryan Ramírez FC Cincinnati Aktiv 118 / 136 40% 1 15.10.2026 -
Jesus Ferreira Seattle Sounders Aktiv 140 / 120 40% 1 15.10.2026 -
Luca Langoni New England Revolution Aktiv 123 / 136 40% 1 13.10.2026 -
Djordje Mihailović Toronto FC Aktiv 144 / 118 40% 1 11.10.2026 -
Marco Pašalić Orlando City Aktiv 116 / 113 40% 1 08.10.2026 -
Riqui Puig LA Galaxy Aktiv 133 / 125 40% 1 08.10.2026 -
Tadeo Allende Inter Miami CF Aktiv 111 / 122 40% 1 05.10.2026 -
Talles Magno New York City Aktiv 127 / 128 40% 1 05.10.2026 -